createdAt,value
2023-10-06T00:02:08.908Z,75.97
2023-10-06T00:04:39.999Z,75.44
2023-10-06T00:07:09.293Z,74.89
2023-10-06T00:09:36.190Z,75.17
2023-10-06T00:12:05.348Z,76.00
2023-10-06T00:14:40.776Z,76.09
2023-10-06T00:17:18.599Z,75.41
2023-10-06T00:19:46.386Z,75.06
2023-10-06T00:22:18.782Z,75.20
2023-10-06T00:24:47.732Z,75.65
2023-10-06T00:27:14.595Z,75.45
2023-10-06T00:29:45.298Z,75.50
2023-10-06T00:32:30.084Z,75.57
2023-10-06T00:35:12.909Z,75.86
2023-10-06T00:37:40.815Z,74.63
2023-10-06T00:40:13.254Z,74.41
2023-10-06T00:42:40.264Z,73.98
2023-10-06T00:45:08.914Z,73.49
2023-10-06T00:47:42.340Z,73.63
2023-10-06T00:50:12.454Z,72.50
2023-10-06T00:52:41.115Z,73.31
2023-10-06T00:55:13.136Z,71.22
2023-10-06T00:57:41.718Z,69.85
2023-10-06T01:00:22.528Z,68.98
2023-10-06T01:02:49.652Z,69.09
2023-10-06T01:05:17.670Z,71.20
2023-10-06T01:07:48.052Z,71.45
2023-10-06T01:10:19.088Z,71.06
2023-10-06T01:12:53.231Z,71.17
2023-10-06T01:15:20.685Z,71.89
2023-10-06T01:17:48.452Z,72.44
2023-10-06T01:20:34.368Z,72.54
2023-10-06T01:23:01.857Z,73.23
2023-10-06T01:25:28.957Z,73.56
2023-10-06T01:27:55.513Z,73.99
2023-10-06T01:30:22.893Z,73.64
2023-10-06T01:32:53.037Z,73.82
2023-10-06T01:35:24.596Z,73.59
2023-10-06T01:38:01.447Z,73.42
2023-10-06T01:40:28.505Z,73.61
2023-10-06T01:42:55.229Z,73.85
2023-10-06T01:45:25.213Z,74.89
2023-10-06T01:47:57.540Z,75.24
2023-10-06T01:50:28.487Z,74.83
2023-10-06T01:52:58.561Z,74.31
2023-10-06T01:55:25.758Z,74.51
2023-10-06T01:57:52.689Z,73.64
2023-10-06T02:00:35.118Z,73.41
2023-10-06T02:03:05.626Z,73.29
2023-10-06T02:05:33.097Z,71.78
2023-10-06T02:08:02.565Z,72.04
2023-10-06T02:10:29.116Z,72.79
2023-10-06T02:12:56.577Z,73.35
2023-10-06T02:15:23.085Z,74.01
2023-10-06T02:17:51.797Z,74.35
2023-10-06T02:20:31.508Z,74.30
2023-10-06T02:22:59.453Z,74.86
2023-10-06T02:25:26.996Z,75.20
2023-10-06T02:27:57.827Z,74.86
2023-10-06T02:30:41.008Z,74.41
2023-10-06T02:33:07.607Z,74.10
2023-10-06T02:35:45.203Z,74.60
2023-10-06T02:38:11.793Z,75.13
2023-10-06T02:40:48.843Z,75.18
2023-10-06T02:43:21.287Z,74.95
2023-10-06T02:45:48.078Z,75.10
2023-10-06T02:48:18.725Z,74.60
2023-10-06T02:50:47.935Z,73.94
2023-10-06T02:53:14.657Z,73.17
2023-10-06T02:55:44.849Z,73.08
2023-10-06T02:58:11.881Z,73.02
2023-10-06T03:00:38.371Z,72.82
2023-10-06T03:03:13.345Z,73.15
2023-10-06T03:05:41.108Z,73.92
2023-10-06T03:08:10.713Z,74.37
2023-10-06T03:10:44.973Z,74.23
2023-10-06T03:13:14.745Z,73.84
2023-10-06T03:15:47.730Z,74.33
2023-10-06T03:18:16.766Z,74.69
2023-10-06T03:21:14.617Z,74.06
2023-10-06T03:23:45.433Z,73.59
2023-10-06T03:26:25.927Z,73.17
2023-10-06T03:28:54.292Z,73.19
2023-10-06T03:31:21.642Z,71.75
2023-10-06T03:33:56.493Z,70.88
2023-10-06T03:36:28.457Z,69.97
2023-10-06T03:38:58.443Z,69.55
2023-10-06T03:41:32.510Z,69.39
2023-10-06T03:44:02.080Z,69.09
2023-10-06T03:46:36.668Z,69.27
2023-10-06T03:49:06.799Z,69.03
2023-10-06T03:51:39.443Z,69.10
2023-10-06T03:54:06.781Z,68.98
2023-10-06T03:56:33.841Z,69.03
2023-10-06T03:59:01.293Z,68.94
2023-10-06T04:01:28.054Z,68.92
2023-10-06T04:04:01.035Z,68.66
2023-10-06T04:06:28.427Z,68.66
2023-10-06T04:08:58.098Z,68.24
2023-10-06T04:11:25.476Z,68.57
2023-10-06T04:13:52.035Z,68.49
2023-10-06T04:16:18.558Z,68.67
2023-10-06T04:18:49.128Z,68.62
2023-10-06T04:21:16.586Z,68.59
2023-10-06T04:23:43.354Z,68.59
2023-10-06T04:26:11.416Z,68.40
2023-10-06T04:28:38.995Z,68.78
2023-10-06T04:31:08.919Z,68.76
2023-10-06T04:33:35.829Z,68.66
2023-10-06T04:36:13.042Z,68.27
2023-10-06T04:38:41.121Z,68.09
2023-10-06T04:41:11.437Z,67.93
2023-10-06T04:43:45.580Z,67.52
2023-10-06T04:46:13.725Z,67.32
2023-10-06T04:48:40.304Z,67.57
2023-10-06T04:51:07.489Z,67.19
2023-10-06T04:53:37.660Z,67.40
2023-10-06T04:56:05.707Z,67.37
2023-10-06T04:58:33.008Z,67.71
2023-10-06T05:01:03.460Z,68.08
2023-10-06T05:03:43.714Z,68.19
2023-10-06T05:06:18.304Z,68.22
2023-10-06T05:08:50.361Z,67.90
2023-10-06T05:11:18.973Z,67.98
2023-10-06T05:13:49.223Z,68.24
2023-10-06T05:16:16.501Z,68.26
2023-10-06T05:18:43.112Z,68.67
2023-10-06T05:21:10.188Z,68.90
2023-10-06T05:23:36.713Z,68.33
2023-10-06T05:26:09.590Z,68.47
2023-10-06T05:28:38.593Z,68.43
2023-10-06T05:31:08.445Z,68.21
2023-10-06T05:33:35.671Z,68.28
2023-10-06T05:36:21.192Z,68.29
2023-10-06T05:38:48.021Z,67.92
2023-10-06T05:41:16.388Z,68.05
2023-10-06T05:43:44.696Z,68.25
2023-10-06T05:46:12.634Z,68.21
2023-10-06T05:48:39.911Z,68.27
2023-10-06T05:51:10.107Z,68.30
2023-10-06T05:53:40.330Z,67.90
2023-10-06T05:56:08.888Z,68.30
2023-10-06T05:58:38.385Z,68.02
2023-10-06T06:01:11.698Z,68.07
2023-10-06T06:03:46.667Z,68.26
2023-10-06T06:06:23.647Z,68.29
2023-10-06T06:08:52.386Z,68.49
2023-10-06T06:11:19.022Z,68.57
2023-10-06T06:13:52.696Z,68.28
2023-10-06T06:16:22.702Z,68.37
2023-10-06T06:18:49.955Z,69.50
2023-10-06T06:21:17.767Z,68.81
2023-10-06T06:23:47.509Z,68.51
2023-10-06T06:26:18.270Z,68.61
2023-10-06T06:28:45.838Z,68.54
2023-10-06T06:31:19.526Z,68.65
2023-10-06T06:33:49.942Z,68.73
2023-10-06T06:36:16.674Z,68.73
2023-10-06T06:38:43.214Z,68.20
2023-10-06T06:41:09.818Z,68.09
2023-10-06T06:43:36.734Z,67.42
2023-10-06T06:46:03.319Z,67.34
2023-10-06T06:48:38.869Z,67.76
2023-10-06T06:51:06.662Z,67.70
2023-10-06T06:53:33.263Z,67.93
2023-10-06T06:55:59.777Z,68.27
2023-10-06T06:58:27.408Z,67.73
2023-10-06T07:00:53.922Z,67.29
2023-10-06T07:03:20.496Z,67.39
2023-10-06T07:05:47.020Z,67.65
2023-10-06T07:08:13.673Z,66.84
2023-10-06T07:10:47.695Z,66.76
2023-10-06T07:13:14.958Z,67.49
2023-10-06T07:15:42.884Z,66.10
2023-10-06T07:18:11.543Z,66.88
2023-10-06T07:20:38.426Z,67.01
2023-10-06T07:23:05.671Z,65.97
2023-10-06T07:25:32.490Z,64.54
2023-10-06T07:28:00.863Z,64.64
2023-10-06T07:30:30.464Z,63.29
2023-10-06T07:32:57.673Z,63.12
2023-10-06T07:35:32.642Z,63.66
2023-10-06T07:37:59.636Z,62.87
2023-10-06T07:40:29.055Z,62.92
2023-10-06T07:42:56.557Z,62.39
2023-10-06T07:45:25.376Z,61.69
2023-10-06T07:47:52.388Z,60.98
2023-10-06T07:50:19.624Z,60.99
2023-10-06T07:52:48.243Z,60.28
2023-10-06T07:55:15.210Z,60.79
2023-10-06T07:57:42.705Z,60.57
2023-10-06T08:00:10.205Z,60.39
2023-10-06T08:02:44.508Z,60.00
2023-10-06T08:05:13.276Z,59.64
2023-10-06T08:07:45.775Z,59.55
2023-10-06T08:10:16.819Z,58.89
2023-10-06T08:12:47.689Z,58.81
2023-10-06T08:15:22.479Z,58.52
2023-10-06T08:17:51.822Z,58.71
2023-10-06T08:20:18.717Z,57.83
2023-10-06T08:22:47.932Z,57.72
2023-10-06T08:25:19.621Z,57.37
2023-10-06T08:27:48.180Z,56.16
2023-10-06T08:30:20.614Z,56.94
2023-10-06T08:32:49.276Z,56.19
2023-10-06T08:35:16.399Z,55.62
2023-10-06T08:37:44.817Z,55.72
2023-10-06T08:40:20.493Z,54.91
2023-10-06T08:42:50.063Z,53.83
2023-10-06T08:45:22.371Z,53.97
2023-10-06T08:50:24.156Z,52.62
2023-10-06T08:52:55.208Z,52.37
2023-10-06T08:55:23.592Z,51.65
2023-10-06T08:57:54.289Z,50.97
2023-10-06T09:00:25.784Z,51.37
2023-10-06T09:02:55.017Z,50.00
2023-10-06T09:05:22.724Z,50.58
2023-10-06T09:08:00.253Z,49.41
2023-10-06T09:10:28.586Z,49.12
2023-10-06T09:13:18.507Z,48.60
2023-10-06T09:16:07.940Z,47.95
2023-10-06T09:18:41.150Z,49.30
2023-10-06T09:21:17.316Z,49.45
2023-10-06T09:23:44.885Z,47.72
2023-10-06T09:26:14.108Z,48.30
2023-10-06T09:28:55.235Z,48.99
2023-10-06T09:31:36.415Z,50.33
2023-10-06T09:34:03.356Z,47.79
2023-10-06T09:36:43.352Z,46.74
2023-10-06T09:39:15.491Z,48.45
2023-10-06T09:41:42.551Z,47.31
2023-10-06T09:44:13.456Z,46.84
2023-10-06T09:46:44.403Z,44.80
2023-10-06T09:49:13.900Z,46.52
2023-10-06T09:51:42.483Z,45.47
2023-10-06T09:54:11.508Z,42.10
2023-10-06T09:56:43.144Z,39.97
2023-10-06T09:59:13.578Z,40.70
2023-10-06T10:01:43.643Z,41.06
2023-10-06T10:04:13.793Z,41.05
2023-10-06T10:06:47.178Z,41.44
2023-10-06T10:09:18.260Z,41.28
2023-10-06T10:12:02.305Z,40.84
2023-10-06T10:15:00.963Z,40.19
2023-10-06T10:17:45.204Z,39.84
2023-10-06T10:20:16.395Z,39.44
2023-10-06T10:22:44.323Z,38.83
2023-10-06T10:27:44.432Z,38.60
2023-10-06T10:30:14.138Z,39.48
2023-10-06T10:32:53.649Z,39.76
2023-10-06T10:35:20.369Z,38.64
2023-10-06T10:38:00.675Z,37.94
2023-10-06T10:40:47.885Z,37.14
2023-10-06T10:43:15.628Z,38.24
2023-10-06T10:45:46.335Z,37.33
2023-10-06T10:48:18.759Z,36.85
2023-10-06T10:50:54.191Z,37.06
2023-10-06T10:53:22.291Z,37.78
2023-10-06T10:55:49.752Z,36.87
2023-10-06T10:58:50.361Z,36.90
2023-10-06T11:01:33.471Z,39.07
2023-10-06T11:04:27.366Z,39.06
2023-10-06T11:06:56.642Z,39.30
2023-10-06T11:09:31.729Z,38.85
2023-10-06T11:12:23.179Z,38.33
2023-10-06T11:14:53.256Z,37.48
2023-10-06T11:17:24.461Z,38.43
2023-10-06T11:20:29.784Z,37.09
2023-10-06T11:23:00.853Z,38.39
2023-10-06T11:25:29.596Z,38.29
2023-10-06T11:28:09.859Z,38.04
2023-10-06T11:30:41.278Z,37.43
2023-10-06T11:33:10.125Z,38.47
2023-10-06T11:35:38.244Z,38.35
2023-10-06T11:38:13.275Z,38.20
2023-10-06T11:40:41.582Z,37.21
2023-10-06T11:43:13.934Z,37.77
2023-10-06T11:45:42.683Z,39.01
2023-10-06T11:48:26.062Z,38.22
2023-10-06T11:51:10.035Z,38.00
2023-10-06T11:53:38.727Z,36.57
2023-10-06T11:56:14.980Z,36.89
2023-10-06T11:58:43.156Z,36.48
2023-10-06T12:01:33.388Z,36.77
2023-10-06T12:04:01.805Z,36.30
2023-10-06T12:06:42.028Z,37.87
2023-10-06T12:09:09.653Z,37.07
2023-10-06T12:11:36.635Z,37.10
2023-10-06T12:14:04.930Z,36.54
2023-10-06T12:16:31.998Z,36.92
2023-10-06T12:18:58.605Z,36.60
2023-10-06T12:21:25.204Z,37.06
2023-10-06T12:23:53.665Z,37.76
2023-10-06T12:26:20.376Z,37.59
2023-10-06T12:28:47.548Z,37.30
2023-10-06T12:31:14.313Z,35.19
2023-10-06T12:33:41.057Z,35.97
2023-10-06T12:36:10.404Z,36.73
2023-10-06T12:38:37.461Z,36.02
2023-10-06T12:41:08.517Z,36.58
2023-10-06T12:43:37.899Z,36.95
2023-10-06T12:46:10.081Z,36.83
2023-10-06T12:48:40.407Z,35.98
2023-10-06T12:51:07.931Z,36.13
2023-10-06T12:53:34.735Z,36.62
2023-10-06T12:56:01.381Z,36.27
2023-10-06T12:58:27.918Z,36.44
2023-10-06T13:00:55.073Z,35.99
2023-10-06T13:03:23.217Z,36.33
2023-10-06T13:05:49.824Z,36.15
2023-10-06T13:08:22.529Z,36.36
2023-10-06T13:10:49.737Z,37.06
2023-10-06T13:13:18.970Z,37.93
2023-10-06T13:15:48.844Z,37.81
2023-10-06T13:18:18.834Z,37.70
2023-10-06T13:20:46.351Z,36.79
2023-10-06T13:23:12.922Z,37.69
2023-10-06T13:25:40.868Z,38.17
2023-10-06T13:28:16.282Z,36.93
2023-10-06T13:30:44.612Z,37.51
2023-10-06T13:33:11.705Z,37.34
2023-10-06T13:35:38.537Z,37.55
2023-10-06T13:38:06.164Z,37.81
2023-10-06T13:40:35.600Z,37.66
2023-10-06T13:43:02.278Z,39.07
2023-10-06T13:45:32.312Z,38.72
2023-10-06T13:48:04.434Z,37.87
2023-10-06T13:50:32.319Z,37.84
2023-10-06T13:52:58.975Z,37.25
2023-10-06T13:55:25.890Z,37.43
2023-10-06T13:57:53.895Z,37.04
2023-10-06T14:00:39.857Z,37.44
2023-10-06T14:03:08.765Z,37.47
2023-10-06T14:05:45.415Z,36.81
2023-10-06T14:08:15.093Z,37.68
2023-10-06T14:10:42.757Z,37.35
2023-10-06T14:13:12.461Z,37.38
2023-10-06T14:15:42.777Z,37.98
2023-10-06T14:18:14.529Z,37.88
2023-10-06T14:20:44.665Z,37.62
2023-10-06T14:23:13.333Z,37.79
2023-10-06T14:25:41.955Z,39.08
2023-10-06T14:28:12.613Z,37.47
2023-10-06T14:30:44.705Z,40.29
2023-10-06T14:36:04.586Z,37.07
2023-10-06T14:38:44.490Z,37.67
2023-10-06T14:41:31.606Z,36.61
2023-10-06T14:44:18.730Z,36.89
2023-10-06T14:46:51.727Z,36.24
2023-10-06T14:49:28.782Z,40.96
2023-10-06T14:51:57.927Z,39.31
2023-10-06T14:54:32.727Z,36.83
2023-10-06T14:57:04.132Z,35.35
2023-10-06T14:59:33.621Z,36.04
2023-10-06T15:02:07.870Z,39.15
2023-10-06T15:04:35.787Z,37.99
2023-10-06T15:07:03.010Z,36.76
2023-10-06T15:09:31.826Z,36.92
2023-10-06T15:11:58.604Z,37.42
2023-10-06T15:14:26.595Z,38.24
2023-10-06T15:16:54.650Z,38.86
2023-10-06T15:19:26.210Z,39.88
2023-10-06T15:21:56.051Z,39.77
2023-10-06T15:24:22.947Z,39.93
2023-10-06T15:26:51.326Z,40.15
2023-10-06T15:29:21.902Z,41.25
2023-10-06T15:31:49.874Z,43.71
2023-10-06T15:34:16.997Z,47.05
2023-10-06T15:36:44.393Z,46.99
2023-10-06T15:39:19.928Z,47.03
2023-10-06T15:41:47.727Z,43.09
2023-10-06T15:44:15.897Z,46.14
2023-10-06T15:46:43.670Z,48.90
2023-10-06T15:49:18.255Z,47.54
2023-10-06T15:51:47.890Z,49.56
2023-10-06T15:54:14.447Z,49.94
2023-10-06T15:56:41.726Z,51.09
2023-10-06T15:59:15.703Z,51.36
2023-10-06T16:01:44.511Z,52.08
2023-10-06T16:04:13.569Z,53.00
2023-10-06T16:06:42.963Z,53.83
2023-10-06T16:09:10.890Z,54.52
2023-10-06T16:11:40.926Z,55.24
2023-10-06T16:14:07.777Z,55.83
2023-10-06T16:16:37.642Z,55.63
2023-10-06T16:19:05.159Z,55.86
2023-10-06T16:21:35.634Z,56.64
2023-10-06T16:24:06.772Z,56.94
2023-10-06T16:26:33.601Z,56.75
2023-10-06T16:29:00.284Z,57.21
2023-10-06T16:31:27.912Z,58.09
2023-10-06T16:33:55.297Z,58.85
2023-10-06T16:36:23.728Z,59.13
2023-10-06T16:38:51.958Z,59.53
2023-10-06T16:41:25.062Z,59.99
2023-10-06T16:43:58.739Z,59.35
2023-10-06T16:46:26.430Z,59.41
2023-10-06T16:48:53.701Z,59.48
2023-10-06T16:51:21.597Z,60.29
2023-10-06T16:53:49.573Z,60.92
2023-10-06T16:56:17.204Z,61.71
2023-10-06T16:58:43.850Z,62.00
2023-10-06T17:01:10.437Z,61.71
2023-10-06T17:03:37.481Z,62.04
2023-10-06T17:06:06.256Z,62.32
2023-10-06T17:08:33.022Z,62.60
2023-10-06T17:11:12.839Z,63.05
2023-10-06T17:13:39.365Z,63.61
2023-10-06T17:16:10.450Z,63.88
2023-10-06T17:18:37.577Z,64.45
2023-10-06T17:21:07.961Z,64.66
2023-10-06T17:23:34.959Z,64.82
2023-10-06T17:26:02.866Z,64.93
2023-10-06T17:28:30.256Z,64.94
2023-10-06T17:30:56.870Z,65.33
2023-10-06T17:33:23.485Z,65.48
2023-10-06T17:35:50.000Z,65.45
2023-10-06T17:38:19.525Z,65.48
2023-10-06T17:40:46.092Z,65.43
2023-10-06T17:43:13.319Z,65.64
2023-10-06T17:45:40.171Z,66.23
2023-10-06T17:48:07.382Z,66.21
2023-10-06T17:50:34.492Z,66.41
2023-10-06T17:53:01.008Z,66.88
2023-10-06T17:55:32.728Z,66.47
2023-10-06T17:57:59.982Z,66.74
2023-10-06T18:00:28.625Z,66.70
2023-10-06T18:02:55.648Z,67.08
2023-10-06T18:05:24.341Z,67.05
2023-10-06T18:07:51.696Z,67.56
2023-10-06T18:10:18.337Z,66.42
2023-10-06T18:12:44.979Z,65.75
2023-10-06T18:15:12.137Z,65.66
2023-10-06T18:17:38.819Z,66.49
2023-10-06T18:20:09.121Z,67.04
2023-10-06T18:22:37.431Z,67.21
2023-10-06T18:25:07.268Z,68.35
2023-10-06T18:27:34.136Z,68.57
2023-10-06T18:30:00.681Z,68.79
2023-10-06T18:32:27.237Z,68.47
2023-10-06T18:34:54.210Z,68.17
2023-10-06T18:37:20.783Z,67.58
2023-10-06T18:39:48.866Z,68.44
2023-10-06T18:42:15.423Z,68.84
2023-10-06T18:44:41.860Z,69.43
2023-10-06T18:47:08.468Z,69.02
2023-10-06T18:49:35.082Z,69.61
2023-10-06T18:52:01.982Z,70.19
2023-10-06T18:54:28.487Z,70.28
2023-10-06T18:56:56.602Z,69.62
2023-10-06T18:59:23.275Z,69.75
2023-10-06T19:01:49.996Z,69.79
2023-10-06T19:04:16.553Z,69.97
2023-10-06T19:06:43.134Z,70.60
2023-10-06T19:09:15.958Z,70.43
2023-10-06T19:11:42.699Z,69.57
2023-10-06T19:14:09.183Z,69.50
2023-10-06T19:16:36.606Z,70.01
2023-10-06T19:19:03.242Z,70.13
2023-10-06T19:21:29.768Z,70.69
2023-10-06T19:23:58.204Z,71.01
2023-10-06T19:26:25.724Z,70.23
2023-10-06T19:28:53.352Z,69.33
2023-10-06T19:31:20.149Z,68.26
2023-10-06T19:33:51.502Z,68.07
2023-10-06T19:36:18.596Z,67.47
2023-10-06T19:38:47.474Z,67.96
2023-10-06T19:41:18.737Z,68.70
2023-10-06T19:43:46.338Z,68.56
2023-10-06T19:46:15.127Z,68.80
2023-10-06T19:48:43.822Z,68.80
2023-10-06T19:51:11.198Z,69.75
2023-10-06T19:53:38.136Z,70.08
2023-10-06T19:56:05.499Z,71.01
2023-10-06T19:58:33.012Z,71.63
2023-10-06T20:01:00.122Z,72.02
2023-10-06T20:03:27.411Z,72.13
2023-10-06T20:05:57.481Z,72.35
2023-10-06T20:08:24.249Z,72.02
2023-10-06T20:10:55.395Z,72.28
2023-10-06T20:13:25.952Z,72.86
2023-10-06T20:15:53.166Z,73.57
2023-10-06T20:18:20.890Z,73.49
2023-10-06T20:20:48.023Z,73.86
2023-10-06T20:23:14.657Z,74.13
2023-10-06T20:25:42.292Z,74.30
2023-10-06T20:28:10.333Z,75.07
2023-10-06T20:30:37.442Z,74.64
2023-10-06T20:33:04.270Z,74.90
2023-10-06T20:35:32.038Z,75.01
2023-10-06T20:37:59.603Z,75.05
2023-10-06T20:40:26.844Z,75.20
2023-10-06T20:42:57.594Z,75.51
2023-10-06T20:45:29.190Z,75.67
2023-10-06T20:47:56.728Z,74.79
2023-10-06T20:50:28.366Z,74.62
2023-10-06T20:52:55.765Z,74.67
2023-10-06T20:55:22.714Z,75.21
2023-10-06T20:57:49.847Z,75.48
2023-10-06T21:00:22.620Z,74.52
2023-10-06T21:02:49.815Z,74.87
2023-10-06T21:05:18.234Z,75.37
2023-10-06T21:07:45.727Z,75.43
2023-10-06T21:10:14.085Z,75.32
2023-10-06T21:12:45.118Z,75.15
2023-10-06T21:15:14.355Z,75.03
2023-10-06T21:17:43.638Z,74.89
2023-10-06T21:20:13.196Z,75.10
2023-10-06T21:22:40.922Z,75.96
2023-10-06T21:25:14.617Z,76.07
2023-10-06T21:27:42.149Z,76.33
2023-10-06T21:30:09.269Z,76.40
2023-10-06T21:32:38.822Z,76.09
2023-10-06T21:35:06.913Z,76.24
2023-10-06T21:37:34.608Z,76.27
2023-10-06T21:40:02.406Z,76.44
2023-10-06T21:42:29.561Z,76.69
2023-10-06T21:44:56.566Z,76.75
2023-10-06T21:47:23.744Z,76.87
2023-10-06T21:49:50.286Z,76.92
2023-10-06T21:52:16.822Z,76.41
2023-10-06T21:54:43.779Z,76.16
2023-10-06T21:57:14.079Z,76.40
2023-10-06T21:59:42.256Z,76.28
2023-10-06T22:02:09.286Z,76.68
2023-10-06T22:04:36.269Z,76.65
2023-10-06T22:07:03.220Z,77.09
2023-10-06T22:09:29.870Z,76.82
2023-10-06T22:11:56.576Z,76.24
2023-10-06T22:14:23.150Z,76.46
2023-10-06T22:16:51.556Z,76.62
2023-10-06T22:19:18.220Z,76.26
2023-10-06T22:21:45.076Z,76.32
2023-10-06T22:24:14.700Z,77.26
2023-10-06T22:26:41.283Z,76.02
2023-10-06T22:29:07.893Z,75.73
2023-10-06T22:31:34.498Z,75.80
2023-10-06T22:34:01.081Z,75.46
2023-10-06T22:36:27.644Z,76.10
2023-10-06T22:38:55.389Z,76.58
2023-10-06T22:41:22.114Z,76.59
2023-10-06T22:43:48.793Z,76.70
2023-10-06T22:46:16.136Z,76.81
2023-10-06T22:48:45.319Z,77.25
2023-10-06T22:51:13.645Z,77.18
2023-10-06T22:53:40.145Z,77.43
2023-10-06T22:56:07.310Z,77.53
2023-10-06T22:58:33.955Z,78.08
2023-10-06T23:01:01.229Z,77.79
2023-10-06T23:03:27.912Z,77.27
2023-10-06T23:05:54.704Z,76.92
2023-10-06T23:08:21.805Z,77.29
2023-10-06T23:10:48.641Z,77.36
2023-10-06T23:13:15.244Z,77.29
2023-10-06T23:15:41.833Z,77.97
2023-10-06T23:18:12.508Z,77.67
2023-10-06T23:20:45.936Z,76.84
2023-10-06T23:23:12.534Z,77.03
2023-10-06T23:25:47.499Z,77.25
2023-10-06T23:28:14.544Z,77.70
2023-10-06T23:30:41.148Z,77.73
2023-10-06T23:33:08.305Z,77.71
2023-10-06T23:35:35.469Z,77.32
2023-10-06T23:38:07.589Z,77.51
2023-10-06T23:40:35.582Z,77.72
2023-10-06T23:43:02.483Z,77.86
2023-10-06T23:45:32.190Z,77.81
2023-10-06T23:48:00.211Z,77.87
2023-10-06T23:50:30.214Z,77.64
2023-10-06T23:53:01.191Z,77.36
2023-10-06T23:55:28.956Z,77.95
2023-10-06T23:57:55.938Z,77.85
